Uptown, New Jersey
Current Conditions -  °F | °C
As of 10:51 PM on Saturday 25 Oct 2014 (Local Time) from KNYC Reporting Station
Clear Clear  
Wind Chill: 62°   Ceiling: Unl
Heat Index: 62°   Visibility: 10mi
Dew Point: 44°   Wind: 8mph
Humidity: 52%   Direction: 250°WSW
Pressure: 29.61"   Gusts: 20mph
Location:  40.7453°N, 74.032°W
Report Text: KNYC 260251Z AUTO 25007G17KT 10SM CLR 17/07 A2961 RMK AO2 SLP018 T01670067 56017 $
Loading
Personal Weather Stations






























Interactive Weather Map
Tropical Storm Tracking
New forecast layout! Learn more

10-Day Weather Forecast

Advertisements
Track Severe Weather on mobile